createdAt,value
2023-07-11T04:15:35.746Z,99.90
2023-07-11T04:20:39.196Z,99.90
2023-07-11T04:25:42.701Z,99.90
2023-07-11T04:30:47.479Z,99.90
2023-07-11T04:35:52.144Z,99.90
2023-07-11T04:40:55.534Z,99.90
2023-07-11T04:46:00.541Z,99.90
2023-07-11T04:51:07.594Z,99.90
2023-07-11T04:56:12.858Z,99.90
2023-07-11T05:01:23.842Z,99.90
2023-07-11T05:06:28.296Z,99.90
2023-07-11T05:11:31.537Z,99.90
2023-07-11T05:16:38.602Z,99.90
2023-07-11T05:21:44.254Z,99.90
2023-07-11T05:26:48.592Z,99.90
2023-07-11T05:31:56.747Z,99.90
2023-07-11T05:37:00.106Z,99.90
2023-07-11T05:42:03.928Z,99.90
2023-07-11T05:47:09.448Z,99.90
2023-07-11T05:52:13.144Z,99.90
2023-07-11T05:57:16.449Z,99.90
2023-07-11T06:02:21.172Z,99.90
2023-07-11T06:07:26.973Z,99.90
2023-07-11T06:12:30.273Z,99.90
2023-07-11T06:17:36.157Z,96.90
2023-07-11T06:22:40.503Z,94.40
2023-07-11T06:27:43.811Z,93.20
2023-07-11T06:32:48.502Z,91.90
2023-07-11T06:37:51.868Z,91.90
2023-07-11T06:42:55.581Z,91.40
2023-07-11T06:48:00.359Z,90.10
2023-07-11T06:53:04.794Z,89.40
2023-07-11T06:58:08.169Z,88.80
2023-07-11T07:03:13.849Z,87.80
2023-07-11T07:08:17.512Z,87.10
2023-07-11T07:13:23.342Z,87.00
2023-07-11T07:18:32.369Z,83.50
2023-07-11T07:23:36.120Z,82.70
2023-07-11T07:28:41.347Z,76.60
2023-07-11T07:33:46.162Z,75.00
2023-07-11T07:38:49.836Z,77.60
2023-07-11T07:43:53.235Z,77.00
2023-07-11T07:48:58.839Z,77.00
2023-07-11T07:54:02.310Z,78.00
2023-07-11T07:59:05.836Z,78.60
2023-07-11T08:04:10.709Z,78.50
2023-07-11T08:09:14.185Z,77.80
2023-07-11T08:14:17.482Z,77.20
2023-07-11T08:19:22.337Z,76.60
2023-07-11T08:24:25.963Z,83.60
2023-07-11T08:29:30.482Z,83.20
2023-07-11T08:34:35.513Z,78.40
2023-07-11T08:39:39.503Z,75.20
2023-07-11T08:44:49.158Z,75.00
2023-07-11T08:49:59.643Z,73.90
2023-07-11T08:55:06.198Z,73.50
2023-07-11T09:00:16.226Z,76.30
2023-07-11T09:05:36.532Z,70.70
2023-07-11T09:10:49.206Z,73.00
2023-07-11T09:16:01.606Z,75.20
2023-07-11T09:21:14.827Z,74.00
2023-07-11T09:26:23.977Z,74.70
2023-07-11T09:31:28.372Z,77.80
2023-07-11T09:36:36.154Z,73.00
2023-07-11T09:41:50.592Z,72.70
2023-07-11T09:46:54.663Z,74.80
2023-07-11T09:52:01.589Z,71.50
2023-07-11T09:57:12.358Z,75.20
2023-07-11T10:02:18.933Z,71.50
2023-07-11T10:07:24.717Z,71.50
2023-07-11T10:12:28.155Z,75.00
2023-07-11T10:17:36.589Z,75.50
2023-07-11T10:22:44.689Z,75.80
2023-07-11T10:27:55.878Z,76.40
2023-07-11T10:33:12.590Z,79.00
2023-07-11T10:38:29.570Z,76.70
2023-07-11T10:43:38.872Z,79.90
2023-07-11T10:48:48.091Z,78.80
2023-07-11T10:54:05.191Z,81.70
2023-07-11T10:59:13.641Z,80.70
2023-07-11T11:04:38.887Z,79.80
2023-07-11T11:09:50.495Z,84.30
2023-07-11T11:14:59.171Z,84.80
2023-07-11T11:20:12.632Z,88.20
2023-07-11T11:25:27.914Z,86.80
2023-07-11T11:30:47.018Z,89.10
2023-07-11T11:36:00.485Z,83.70
2023-07-11T11:41:12.669Z,84.00
2023-07-11T11:51:25.943Z,81.00
2023-07-11T11:56:31.315Z,79.70
2023-07-11T12:01:39.454Z,81.50
2023-07-11T12:06:45.809Z,87.40
2023-07-11T12:12:07.800Z,86.70
2023-07-11T12:17:45.526Z,83.00
2023-07-11T12:23:33.535Z,82.90
2023-07-11T12:28:43.047Z,81.30
2023-07-11T12:34:02.124Z,78.20
2023-07-11T12:39:33.903Z,78.10
2023-07-11T12:44:40.602Z,81.50
2023-07-11T12:49:46.237Z,80.60
2023-07-11T12:54:51.186Z,80.20
2023-07-11T12:59:57.812Z,82.60
2023-07-11T13:05:01.771Z,83.90
2023-07-11T13:10:20.193Z,80.50
2023-07-11T13:15:25.719Z,79.40
2023-07-11T13:20:41.617Z,80.50
2023-07-11T13:25:45.584Z,78.60
2023-07-11T13:30:58.342Z,81.50
2023-07-11T13:36:08.346Z,82.30
2023-07-11T13:41:16.429Z,79.00
2023-07-11T13:46:25.206Z,76.80
2023-07-11T13:51:37.189Z,79.10
2023-07-11T13:56:40.498Z,79.70
2023-07-11T14:01:48.014Z,78.10
2023-07-11T14:06:51.801Z,77.50
2023-07-11T14:11:56.271Z,78.20
2023-07-11T14:17:02.336Z,74.60
2023-07-11T14:22:13.926Z,74.20
2023-07-11T14:27:19.285Z,73.00
2023-07-11T14:32:24.597Z,70.00
2023-07-11T14:37:28.350Z,71.60
2023-07-11T14:42:32.318Z,71.80
2023-07-11T14:47:40.196Z,70.70
2023-07-11T14:52:44.523Z,70.90
2023-07-11T15:02:58.299Z,70.20
2023-07-11T15:18:21.502Z,67.20
2023-07-11T15:23:25.133Z,66.90
2023-07-11T15:28:29.450Z,65.50
2023-07-11T15:33:36.463Z,65.70
2023-07-11T15:38:40.838Z,68.30
2023-07-11T15:43:46.389Z,66.70
2023-07-11T15:48:54.273Z,69.10
2023-07-11T15:53:58.880Z,70.10
2023-07-11T15:59:02.305Z,71.40
2023-07-11T16:04:12.278Z,72.00
2023-07-11T16:09:19.452Z,71.80
2023-07-11T16:14:26.051Z,72.10
2023-07-11T16:19:33.397Z,72.00
2023-07-11T16:24:36.797Z,71.50
2023-07-11T16:29:41.211Z,70.80
2023-07-11T16:34:46.998Z,71.50
2023-07-11T16:39:51.589Z,71.50
2023-07-11T16:44:56.957Z,72.80
2023-07-11T16:50:02.863Z,73.50
2023-07-11T16:55:10.670Z,73.90
2023-07-11T17:00:19.247Z,72.20
2023-07-11T17:05:27.822Z,74.90
2023-07-11T17:10:31.941Z,74.40
2023-07-11T17:15:37.315Z,74.90
2023-07-11T17:20:43.705Z,75.30
2023-07-11T17:25:48.609Z,74.50
2023-07-11T17:30:52.981Z,74.60
2023-07-11T17:36:02.403Z,72.80
2023-07-11T17:41:09.039Z,73.60
2023-07-11T17:51:24.348Z,77.80
2023-07-11T17:56:47.542Z,77.30
2023-07-11T18:01:54.266Z,75.80
2023-07-11T18:07:00.062Z,76.80
2023-07-11T18:12:04.897Z,77.80
2023-07-11T18:17:14.981Z,78.80
2023-07-11T18:22:21.721Z,79.50
2023-07-11T18:27:29.142Z,81.40
2023-07-11T18:32:41.874Z,83.30
2023-07-11T18:37:48.833Z,84.60
2023-07-11T18:42:53.117Z,85.20
2023-07-11T18:47:58.172Z,86.80
2023-07-11T18:53:03.241Z,87.30
2023-07-11T18:58:09.414Z,88.00
2023-07-11T19:03:12.907Z,88.10
2023-07-11T19:08:22.948Z,88.40
2023-07-11T19:13:29.522Z,88.80
2023-07-11T19:18:34.782Z,88.80
2023-07-11T19:23:41.513Z,89.40
2023-07-11T19:28:49.177Z,90.00
2023-07-11T19:33:52.553Z,90.20
2023-07-11T19:38:59.591Z,90.60
2023-07-11T19:44:04.340Z,90.90
2023-07-11T19:49:07.675Z,91.10
2023-07-11T19:54:12.757Z,91.00
2023-07-11T19:59:16.275Z,91.20
2023-07-11T20:04:19.975Z,91.10
2023-07-11T20:09:32.962Z,94.10
2023-07-11T20:14:42.624Z,97.40
2023-07-11T20:19:46.539Z,99.90
2023-07-11T20:24:51.326Z,99.90
2023-07-11T20:29:58.139Z,99.90
2023-07-11T20:35:02.580Z,99.90
2023-07-11T20:40:21.324Z,99.90
2023-07-11T20:45:26.293Z,99.90
2023-07-11T20:50:35.604Z,99.90
2023-07-11T20:55:43.157Z,99.90
2023-07-11T21:00:47.151Z,99.90
